Time;durP1;ratioP1;P1;durP2;ratioP2;P2;SDS_P1;SDS_P2;PMS_P1;PMS_P2;Temp;Humidity;BMP_temperature;BMP_pressure;BME280_temperature;BME280_humidity;BME280_pressure;Samples;Min_cycle;Max_cycle;Signal;HPM_P1;HPM_P2
2022/05/15 00:02:20;;;;;;;7.18;4.80;;;;;;;22.95;47.80;99613.72;5052229;28;20036;-38
2022/05/15 00:04:45;;;;;;;7.28;4.88;;;;;;;23.00;48.20;99615.56;5031885;28;20021;-38
2022/05/15 00:07:11;;;;;;;7.38;4.90;;;;;;;22.99;48.13;99612.03;5032438;28;20033;-37
2022/05/15 00:09:37;;;;;;;5.85;5.00;;;;;;;22.94;48.42;99616.72;5031971;28;20037;-37
2022/05/15 00:12:04;;;;;;;6.10;5.10;;;;;;;22.95;48.10;99618.34;5032880;28;20461;-38
2022/05/15 00:14:31;;;;;;;5.70;4.82;;;;;;;22.93;48.19;99607.78;5051086;28;20029;-37
2022/05/15 00:16:56;;;;;;;7.90;4.82;;;;;;;22.69;48.61;99617.78;5051606;28;20028;-38
2022/05/15 00:19:22;;;;;;;5.85;5.00;;;;;;;22.68;48.84;99619.72;5052092;28;20029;-38
2022/05/15 00:21:47;;;;;;;6.45;4.78;;;;;;;22.71;48.82;99610.97;5052146;28;20341;-38
2022/05/15 00:24:13;;;;;;;6.97;5.05;;;;;;;22.65;48.90;99612.94;5052241;28;20031;-38
2022/05/15 00:26:38;;;;;;;10.13;5.15;;;;;;;23.07;47.85;99607.09;5052360;28;20112;-38
2022/05/15 00:29:04;;;;;;;7.97;5.15;;;;;;;22.61;48.94;99616.50;5051601;28;20087;-38
2022/05/15 00:31:29;;;;;;;6.63;4.75;;;;;;;22.30;49.66;99618.72;5052284;28;20033;-38
2022/05/15 00:33:55;;;;;;;8.68;5.00;;;;;;;22.43;49.60;99618.84;5052223;28;20033;-38
2022/05/15 00:36:20;;;;;;;6.15;4.70;;;;;;;22.55;49.15;99618.47;5052525;28;20025;-38
2022/05/15 00:38:46;;;;;;;6.05;4.80;;;;;;;22.43;49.07;99626.19;5051248;28;20491;-38
2022/05/15 00:41:12;;;;;;;7.22;4.95;;;;;;;22.38;49.23;99620.81;5051874;28;20498;-38
2022/05/15 00:43:43;;;;;;;6.10;4.97;;;;;;;22.41;49.24;99625.66;5052041;28;20029;-38
2022/05/15 00:46:23;;;;;;;5.45;4.60;;;;;;;22.48;48.82;99620.69;5052558;28;20025;-38
2022/05/15 00:48:50;;;;;;;8.02;4.63;;;;;;;22.29;48.93;99615.16;5052538;28;20082;-38
2022/05/15 00:51:20;;;;;;;5.18;4.68;;;;;;;22.26;49.13;99618.47;5052142;28;20404;-37
2022/05/15 00:53:49;;;;;;;5.55;4.95;;;;;;;22.13;49.27;99624.50;5052365;28;20040;-38
2022/05/15 00:56:17;;;;;;;5.07;4.57;;;;;;;21.99;49.51;99618.91;5052228;28;20029;-37
2022/05/15 00:58:49;;;;;;;6.70;4.65;;;;;;;22.11;49.37;99624.78;5051934;28;20225;-37
2022/05/15 01:01:17;;;;;;;5.28;4.45;;;;;;;22.33;48.75;99621.66;5051997;28;20507;-37
2022/05/15 01:03:43;;;;;;;6.93;4.40;;;;;;;22.49;48.62;99624.25;5040128;28;20064;-37
2022/05/15 01:06:09;;;;;;;6.32;4.72;;;;;;;22.69;47.74;99615.88;5036486;28;20017;-38
2022/05/15 01:08:34;;;;;;;8.73;4.78;;;;;;;22.55;47.84;99623.88;5052007;28;20036;-38
2022/05/15 01:11:08;;;;;;;6.97;4.57;;;;;;;22.53;47.69;99623.38;5052449;28;20493;-38
2022/05/15 01:13:35;;;;;;;5.70;4.30;;;;;;;22.36;48.34;99620.28;5051567;28;20033;-38
2022/05/15 01:16:03;;;;;;;6.03;4.40;;;;;;;22.45;47.78;99621.28;5051778;28;20384;-37
2022/05/15 01:18:34;;;;;;;5.07;4.20;;;;;;;22.50;47.72;99615.00;5051677;28;20025;-38
2022/05/15 01:21:17;;;;;;;4.80;4.30;;;;;;;22.52;47.44;99607.38;5051521;28;20048;-39
2022/05/15 01:23:42;;;;;;;6.97;4.18;;;;;;;22.62;47.25;99616.22;5051309;28;20358;-38
2022/05/15 01:26:08;;;;;;;6.47;4.10;;;;;;;22.52;47.06;99608.19;5051746;28;20031;-38
2022/05/15 01:28:33;;;;;;;6.15;4.10;;;;;;;22.45;47.17;99624.00;5051615;28;20035;-37
2022/05/15 01:30:59;;;;;;;6.70;4.10;;;;;;;22.51;46.90;99617.44;5051512;28;20099;-37
2022/05/15 01:33:24;;;;;;;5.70;4.30;;;;;;;22.52;47.32;99615.53;5051105;28;20060;-38
2022/05/15 01:35:50;;;;;;;7.03;4.20;;;;;;;22.21;47.47;99611.16;5051379;28;20107;-37
2022/05/15 01:38:18;;;;;;;4.70;3.90;;;;;;;22.60;46.63;99617.63;5051337;28;20068;-38
2022/05/15 01:40:48;;;;;;;5.30;3.85;;;;;;;22.51;46.65;99622.06;5051531;28;20048;-38
2022/05/15 01:43:13;;;;;;;6.05;4.10;;;;;;;22.48;46.72;99615.28;5051255;28;20469;-37
2022/05/15 01:45:39;;;;;;;6.05;4.00;;;;;;;22.45;46.91;99626.72;5050587;28;20055;-38
2022/05/15 01:48:04;;;;;;;7.78;4.10;;;;;;;22.67;46.49;99625.41;5051074;28;20032;-39
2022/05/15 01:50:30;;;;;;;5.57;3.90;;;;;;;22.45;46.68;99624.78;5050833;28;20057;-38
2022/05/15 01:52:55;;;;;;;8.90;4.05;;;;;;;21.90;48.05;99642.28;5051320;28;20029;-38
2022/05/15 01:55:21;;;;;;;7.07;4.18;;;;;;;21.93;48.14;99639.78;5050661;28;20028;-38
2022/05/15 01:57:46;;;;;;;6.32;4.20;;;;;;;22.14;47.17;99645.91;5050815;28;20056;-37
2022/05/15 02:00:19;;;;;;;6.47;4.22;;;;;;;22.29;47.39;99646.91;5050903;28;20046;-37
2022/05/15 02:02:45;;;;;;;6.78;4.30;;;;;;;22.50;46.73;99640.19;5046778;28;20523;-38
2022/05/15 02:05:10;;;;;;;6.13;4.13;;;;;;;22.09;47.70;99645.13;5030863;28;20033;-37
2022/05/15 02:07:36;;;;;;;5.50;4.10;;;;;;;22.22;47.12;99656.13;5030997;28;20041;-38
2022/05/15 02:10:03;;;;;;;5.78;4.20;;;;;;;22.23;47.00;99644.19;5030938;28;20029;-38
2022/05/15 02:12:29;;;;;;;7.30;4.05;;;;;;;22.16;47.26;99649.16;5030981;28;20033;-50
2022/05/15 02:14:54;;;;;;;7.93;4.25;;;;;;;22.13;47.38;99644.28;5029360;28;20033;-48
2022/05/15 02:17:19;;;;;;;4.47;3.90;;;;;;;22.22;47.04;99647.22;5030795;28;20025;-49
2022/05/15 02:19:45;;;;;;;5.70;4.05;;;;;;;21.79;48.22;99650.47;5030912;28;20087;-48
2022/05/15 02:22:12;;;;;;;5.43;4.20;;;;;;;21.75;48.33;99648.59;5030777;28;20021;-48
2022/05/15 02:24:38;;;;;;;6.38;3.95;;;;;;;21.82;48.47;99647.19;5030713;28;20032;-48
2022/05/15 02:27:04;;;;;;;5.68;4.40;;;;;;;21.96;48.10;99649.28;5030456;28;20152;-47
2022/05/15 02:29:30;;;;;;;6.50;4.40;;;;;;;21.93;48.15;99658.75;5029459;28;20128;-48
2022/05/15 02:31:55;;;;;;;4.80;4.10;;;;;;;22.23;47.35;99654.22;5030430;28;20030;-47
2022/05/15 02:34:20;;;;;;;9.80;4.13;;;;;;;21.90;48.32;99655.81;5030356;28;20112;-50
2022/05/15 02:36:46;;;;;;;5.65;3.95;;;;;;;21.58;49.17;99651.66;5030684;28;20030;-50
2022/05/15 02:39:11;;;;;;;8.52;3.88;;;;;;;21.58;48.48;99649.75;5030179;28;20036;-51
2022/05/15 02:41:37;;;;;;;6.32;4.22;;;;;;;21.75;48.76;99646.69;5030206;28;20068;-51
2022/05/15 02:44:02;;;;;;;8.55;3.95;;;;;;;21.59;49.02;99662.22;5030559;28;20018;-51
2022/05/15 02:46:28;;;;;;;8.07;4.40;;;;;;;21.59;48.74;99659.50;5030163;28;20053;-52
2022/05/15 02:51:37;;;;;;;7.95;4.20;;;;;;;21.22;49.53;99662.59;5030267;28;20032;-50
2022/05/15 02:54:03;;;;;;;5.43;4.38;;;;;;;21.58;48.67;99663.28;5030083;28;20404;-52
2022/05/15 02:56:32;;;;;;;7.03;4.22;;;;;;;21.71;48.66;99661.09;5030676;28;20098;-51
2022/05/15 02:58:58;;;;;;;5.80;4.60;;;;;;;21.86;48.20;99664.50;5029572;28;20181;-48
2022/05/15 03:01:23;;;;;;;4.63;3.90;;;;;;;21.58;49.23;99663.28;5031757;28;20075;-47
2022/05/15 03:03:49;;;;;;;7.35;4.70;;;;;;;21.66;48.40;99667.31;5046495;28;20539;-47
2022/05/15 03:06:15;;;;;;;11.85;7.00;;;;;;;21.98;48.03;99668.78;5053705;28;20025;-50
2022/05/15 03:08:45;;;;;;;7.55;5.13;;;;;;;21.84;48.45;99674.00;5053913;28;20427;-50
2022/05/15 03:11:11;;;;;;;5.13;4.32;;;;;;;21.56;49.08;99676.31;5053625;28;20085;-51
2022/05/15 03:13:38;;;;;;;7.65;4.40;;;;;;;21.81;48.07;99677.25;5053965;28;20538;-50
2022/05/15 03:16:07;;;;;;;7.93;4.40;;;;;;;21.67;48.37;99674.38;5053334;28;20029;-49
2022/05/15 03:18:39;;;;;;;8.77;4.90;;;;;;;21.63;48.79;99679.53;5053425;28;20020;-50
2022/05/15 03:21:04;;;;;;;6.00;4.47;;;;;;;21.46;48.98;99684.47;5053092;28;20024;-48
2022/05/15 03:23:30;;;;;;;8.85;4.97;;;;;;;21.47;49.33;99691.50;5053831;28;20388;-50
2022/05/15 03:25:55;;;;;;;9.15;4.50;;;;;;;21.67;48.94;99687.91;5053221;28;20404;-48
2022/05/15 03:28:21;;;;;;;5.03;4.40;;;;;;;21.27;49.76;99690.47;5051962;28;20461;-47
2022/05/15 03:30:46;;;;;;;20.70;13.35;;;;;;;21.26;49.47;99688.03;5052903;28;20072;-49
2022/05/15 03:33:12;;;;;;;14.10;9.20;;;;;;;21.14;49.54;99693.75;5053565;28;20025;-49
2022/05/15 03:35:38;;;;;;;8.55;5.95;;;;;;;21.47;48.83;99697.72;5053501;28;20338;-47
2022/05/15 03:38:06;;;;;;;4.97;4.30;;;;;;;21.46;48.99;99704.22;5053731;28;20025;-48
2022/05/15 03:40:32;;;;;;;9.25;5.72;;;;;;;21.34;49.16;99692.84;5053866;28;20025;-50
2022/05/15 03:42:57;;;;;;;6.07;4.20;;;;;;;21.70;48.10;99697.38;5053282;28;20029;-48
2022/05/15 03:45:23;;;;;;;11.63;6.50;;;;;;;21.95;47.51;99701.81;5053193;28;20027;-49
2022/05/15 03:47:51;;;;;;;6.32;4.65;;;;;;;22.30;46.53;99700.81;5053637;28;20029;-49
2022/05/15 03:50:18;;;;;;;6.65;4.47;;;;;;;22.37;45.87;99700.50;5053467;28;20024;-50
2022/05/15 03:52:44;;;;;;;10.68;4.10;;;;;;;22.64;45.52;99708.97;5053239;28;20021;-49
2022/05/15 03:55:10;;;;;;;5.22;4.00;;;;;;;23.00;45.58;99703.19;5053085;28;20047;-47
2022/05/15 03:57:36;;;;;;;44.33;31.65;;;;;;;22.95;45.80;99697.81;5053474;28;20068;-48
2022/05/15 04:00:03;;;;;;;10.43;7.15;;;;;;;22.87;45.07;99708.50;5052956;28;20476;-48
2022/05/15 04:02:29;;;;;;;6.82;4.13;;;;;;;22.57;45.20;99713.91;5050178;28;20029;-47
2022/05/15 04:04:55;;;;;;;7.32;4.03;;;;;;;22.72;45.08;99707.53;5042748;28;20025;-50
2022/05/15 04:07:20;;;;;;;5.38;4.20;;;;;;;22.92;44.85;99709.22;5052897;28;20135;-50
2022/05/15 04:09:46;;;;;;;13.85;10.73;;;;;;;23.30;44.21;99717.56;5052615;28;20025;-48
2022/05/15 04:12:13;;;;;;;6.25;4.30;;;;;;;23.45;43.90;99713.88;5053035;28;20372;-47
2022/05/15 04:14:38;;;;;;;6.80;4.32;;;;;;;23.67;43.47;99707.09;5052542;28;20033;-47
2022/05/15 04:17:05;;;;;;;8.93;4.10;;;;;;;24.01;42.48;99709.66;5053064;28;20072;-46
2022/05/15 04:19:30;;;;;;;7.05;4.05;;;;;;;24.72;41.16;99717.81;5052791;28;20021;-48
2022/05/15 04:22:02;;;;;;;8.02;3.88;;;;;;;24.96;40.78;99721.22;5052597;28;20131;-48
2022/05/15 04:24:28;;;;;;;6.50;3.88;;;;;;;25.18;40.58;99723.22;5052127;28;20512;-47
2022/05/15 04:26:53;;;;;;;5.10;3.90;;;;;;;25.66;39.77;99718.53;5052656;28;20043;-48
2022/05/15 04:29:20;;;;;;;5.97;3.70;;;;;;;25.98;39.00;99712.13;5052607;28;20041;-48
2022/05/15 04:31:46;;;;;;;6.45;3.92;;;;;;;26.23;38.32;99716.19;5052851;28;20105;-47
2022/05/15 04:34:12;;;;;;;7.65;4.00;;;;;;;26.37;38.08;99713.44;5052923;28;20104;-48
2022/05/15 04:36:37;;;;;;;7.60;3.85;;;;;;;26.57;38.08;99719.50;5052309;28;20083;-48
2022/05/15 04:39:04;;;;;;;8.02;3.70;;;;;;;26.99;37.33;99722.81;5052361;28;20031;-48
2022/05/15 04:41:30;;;;;;;8.80;4.07;;;;;;;26.78;37.41;99719.81;5052380;28;20396;-47
2022/05/15 04:43:56;;;;;;;5.60;3.60;;;;;;;26.85;37.43;99722.91;5052151;28;20028;-49
2022/05/15 04:46:23;;;;;;;7.32;5.65;;;;;;;27.25;37.09;99712.06;5052207;28;20126;-48
2022/05/15 04:48:48;;;;;;;4.38;3.63;;;;;;;27.02;36.68;99724.94;5052257;28;20033;-49
2022/05/15 04:51:14;;;;;;;4.88;3.78;;;;;;;26.98;36.82;99710.28;5052070;28;20031;-48
2022/05/15 04:53:39;;;;;;;6.10;3.88;;;;;;;26.97;37.07;99727.78;5052066;28;20025;-48
2022/05/15 04:56:05;;;;;;;6.93;3.58;;;;;;;27.13;37.10;99733.63;5052125;28;20025;-50
2022/05/15 04:58:30;;;;;;;8.13;3.78;;;;;;;27.72;36.16;99722.44;5051958;28;20047;-48
2022/05/15 05:00:55;;;;;;;5.72;3.70;;;;;;;28.42;35.07;99717.84;5052106;28;20397;-48
2022/05/15 05:03:21;;;;;;;5.13;3.83;;;;;;;28.70;34.55;99732.03;5042615;28;20473;-49
2022/05/15 05:05:47;;;;;;;5.25;3.40;;;;;;;28.94;33.91;99728.75;5031801;28;20080;-50
2022/05/15 05:08:13;;;;;;;4.45;3.63;;;;;;;29.22;33.33;99739.28;5031417;28;20025;-52
2022/05/15 05:10:40;;;;;;;5.50;3.53;;;;;;;29.31;33.02;99742.00;5031242;28;20025;-47
2022/05/15 05:13:06;;;;;;;8.45;3.92;;;;;;;28.31;34.37;99742.03;5031283;28;20021;-50
2022/05/15 05:15:32;;;;;;;6.43;3.60;;;;;;;28.80;33.90;99750.03;5030993;28;20030;-47
2022/05/15 05:17:58;;;;;;;6.78;3.90;;;;;;;28.98;33.59;99737.13;5030864;28;20632;-49
2022/05/15 05:20:24;;;;;;;5.60;3.78;;;;;;;29.94;32.70;99742.16;5031125;28;20057;-50
2022/05/15 05:22:50;;;;;;;6.50;4.20;;;;;;;28.84;33.75;99740.03;5030864;28;20033;-49
2022/05/15 05:25:17;;;;;;;6.05;4.07;;;;;;;29.15;33.85;99744.47;5030337;28;20035;-48
2022/05/15 05:27:44;;;;;;;10.25;4.57;;;;;;;29.27;33.89;99743.81;5031048;28;20067;-48
2022/05/15 05:30:17;;;;;;;7.88;5.85;;;;;;;29.44;32.96;99738.25;5030415;28;20465;-48
2022/05/15 05:32:43;;;;;;;6.32;5.15;;;;;;;29.11;33.11;99736.09;5030579;28;20065;-49
2022/05/15 05:35:10;;;;;;;6.10;4.07;;;;;;;29.02;33.35;99740.81;5030672;28;20036;-49
2022/05/15 05:37:36;;;;;;;7.68;4.10;;;;;;;28.93;33.36;99742.75;5031017;28;20072;-48
2022/05/15 05:40:02;;;;;;;7.07;4.10;;;;;;;29.55;32.72;99736.72;5030481;28;20033;-49
2022/05/15 05:42:28;;;;;;;16.50;9.00;;;;;;;29.58;32.64;99749.75;5030609;28;20037;-50
2022/05/15 05:44:54;;;;;;;16.23;6.47;;;;;;;30.16;31.45;99752.03;5038394;28;20425;-51
2022/05/15 05:47:27;;;;;;;7.72;3.63;;;;;;;29.86;31.35;99745.78;5049350;28;20032;-47
2022/05/15 05:49:54;;;;;;;7.90;3.83;;;;;;;29.29;32.11;99749.75;5049076;28;20037;-53
2022/05/15 05:52:20;;;;;;;7.97;3.55;;;;;;;29.07;31.97;99745.28;5049205;28;20720;-51
2022/05/15 05:54:45;;;;;;;4.65;3.15;;;;;;;29.36;31.62;99752.78;5049391;28;20024;-51
2022/05/15 05:57:11;;;;;;;5.07;3.42;;;;;;;29.11;32.05;99743.50;5049536;28;20029;-51
2022/05/15 05:59:36;;;;;;;4.53;3.30;;;;;;;29.63;31.75;99746.03;5049767;28;20029;-51
2022/05/15 06:02:02;;;;;;;4.85;3.35;;;;;;;29.95;31.15;99751.97;5048899;28;20017;-52
2022/05/15 06:04:41;;;;;;;6.65;3.40;;;;;;;30.52;30.37;99743.19;5030945;28;20029;-51
2022/05/15 06:07:10;;;;;;;4.53;3.50;;;;;;;30.99;29.58;99742.84;5029596;28;20398;-50
2022/05/15 06:09:38;;;;;;;8.95;3.50;;;;;;;31.28;29.41;99737.50;5029445;28;20140;-49
2022/05/15 06:12:05;;;;;;;6.68;3.13;;;;;;;31.41;29.40;99736.38;5029431;28;20469;-47
2022/05/15 06:14:30;;;;;;;6.15;3.50;;;;;;;32.00;28.92;99734.28;5029507;28;20025;-51
2022/05/15 06:16:56;;;;;;;6.72;3.50;;;;;;;32.03;28.61;99739.13;5028931;28;20025;-48
2022/05/15 06:19:22;;;;;;;6.93;3.10;;;;;;;31.85;28.15;99730.28;5029467;28;20029;-48
2022/05/15 06:21:47;;;;;;;8.65;3.38;;;;;;;32.06;28.30;99735.66;5028892;28;20033;-51
2022/05/15 06:24:13;;;;;;;5.90;3.00;;;;;;;31.90;28.25;99730.84;5029262;28;20031;-51
2022/05/15 06:26:38;;;;;;;5.90;3.13;;;;;;;32.86;27.42;99733.94;5029231;28;20028;-47
2022/05/15 06:29:03;;;;;;;4.93;2.88;;;;;;;32.81;27.17;99739.75;5029036;28;20075;-48
2022/05/15 06:31:29;;;;;;;5.65;3.30;;;;;;;32.81;26.35;99732.28;5028748;28;20059;-48
2022/05/15 06:33:54;;;;;;;5.22;2.80;;;;;;;32.53;27.19;99735.03;5028699;28;20037;-50
2022/05/15 06:36:20;;;;;;;8.60;3.30;;;;;;;33.36;26.64;99732.47;5028322;28;20090;-49
2022/05/15 06:38:45;;;;;;;6.40;3.55;;;;;;;32.20;27.76;99729.78;5029297;28;20033;-50
2022/05/15 06:41:11;;;;;;;7.43;3.35;;;;;;;32.71;27.33;99730.84;5028885;28;20474;-48
2022/05/15 06:43:37;;;;;;;4.95;3.15;;;;;;;32.62;27.43;99723.88;5028636;28;20037;-48
2022/05/15 06:46:03;;;;;;;6.28;2.60;;;;;;;33.44;26.01;99734.25;5028443;28;20111;-47
2022/05/15 06:48:29;;;;;;;6.38;2.70;;;;;;;32.97;25.98;99732.28;5028952;28;20107;-49
2022/05/15 06:50:54;;;;;;;6.07;3.00;;;;;;;33.51;25.81;99736.38;5028853;28;20524;-53
2022/05/15 06:53:20;;;;;;;6.28;3.05;;;;;;;33.38;25.71;99729.38;5028612;28;20037;-54
2022/05/15 06:58:30;;;;;;;9.07;3.20;;;;;;;33.41;25.24;99734.16;5029675;28;20123;-48
2022/05/15 07:00:56;;;;;;;6.03;2.80;;;;;;;32.33;27.21;99723.06;5049187;28;20075;-50
2022/05/15 07:03:21;;;;;;;4.07;3.17;;;;;;;33.43;25.96;99731.84;5040059;28;20032;-52
2022/05/15 07:05:47;;;;;;;7.40;2.83;;;;;;;33.54;25.61;99732.09;5034230;28;20516;-51
2022/05/15 07:08:15;;;;;;;5.35;3.00;;;;;;;33.17;26.59;99727.69;5049430;28;20105;-51
2022/05/15 07:10:41;;;;;;;6.03;2.85;;;;;;;33.13;25.89;99732.31;5049956;28;20044;-52
2022/05/15 07:13:06;;;;;;;5.00;2.90;;;;;;;33.04;26.68;99728.91;5049700;28;20087;-48
2022/05/15 07:15:32;;;;;;;6.97;2.90;;;;;;;33.57;25.40;99737.69;5049247;28;20029;-48
2022/05/15 07:17:57;;;;;;;5.38;3.05;;;;;;;33.93;24.97;99732.19;5049607;28;20029;-49
2022/05/15 07:20:22;;;;;;;7.50;3.00;;;;;;;33.87;25.02;99734.44;5049445;28;20444;-49
2022/05/15 07:22:48;;;;;;;7.78;2.50;;;;;;;33.52;24.75;99724.19;5049215;28;20439;-49
2022/05/15 07:25:14;;;;;;;4.13;2.47;;;;;;;32.93;25.32;99723.91;5049023;28;20522;-48
2022/05/15 07:27:39;;;;;;;5.65;2.70;;;;;;;33.45;24.80;99729.53;5048092;28;20056;-51
2022/05/15 07:30:05;;;;;;;6.65;2.53;;;;;;;33.56;24.54;99736.09;5048225;28;20061;-49
2022/05/15 07:32:31;;;;;;;4.25;2.47;;;;;;;33.41;24.66;99731.41;5048478;28;20025;-51
2022/05/15 07:34:56;;;;;;;5.40;2.38;;;;;;;33.99;23.97;99733.53;5048657;28;20083;-51
2022/05/15 07:37:22;;;;;;;4.50;2.33;;;;;;;33.58;23.97;99724.69;5048568;28;20520;-49
2022/05/15 07:39:47;;;;;;;7.25;2.60;;;;;;;32.62;24.63;99719.19;5048831;28;20087;-51
2022/05/15 07:42:13;;;;;;;4.30;2.30;;;;;;;31.94;25.78;99720.75;5048788;28;20067;-48
2022/05/15 07:44:38;;;;;;;6.78;2.55;;;;;;;32.23;25.53;99729.06;5040829;28;20033;-49
2022/05/15 07:47:05;;;;;;;4.55;2.40;;;;;;;32.70;24.49;99720.97;5030188;28;20052;-48
2022/05/15 07:49:31;;;;;;;7.35;2.60;;;;;;;32.23;25.23;99720.81;5032628;28;20481;-48
2022/05/15 07:51:58;;;;;;;7.40;3.33;;;;;;;32.89;24.77;99722.22;5032928;28;20029;-48
2022/05/15 07:54:23;;;;;;;7.25;4.25;;;;;;;33.15;24.31;99715.41;5032227;28;20108;-49
2022/05/15 07:56:48;;;;;;;5.82;2.40;;;;;;;33.22;24.14;99724.66;5032157;28;20037;-49
2022/05/15 07:59:14;;;;;;;7.00;2.40;;;;;;;32.40;24.68;99723.25;5031879;28;20033;-48
2022/05/15 08:01:40;;;;;;;4.53;2.72;;;;;;;33.43;23.97;99724.34;5032154;28;20443;-51
2022/05/15 08:04:06;;;;;;;5.80;2.60;;;;;;;32.66;24.37;99724.78;5047402;28;20029;-50
2022/05/15 08:09:16;;;;;;;7.03;2.50;;;;;;;32.83;24.43;99727.19;5051830;28;20036;-52
2022/05/15 08:11:41;;;;;;;8.10;2.17;;;;;;;33.13;23.55;99726.00;5051605;28;20397;-49
2022/05/15 08:14:08;;;;;;;4.63;2.72;;;;;;;32.88;24.29;99720.63;5051652;28;20029;-52
2022/05/15 08:16:38;;;;;;;7.72;4.85;;;;;;;32.79;24.50;99728.28;5052289;28;20024;-49
2022/05/15 08:24:33;;;;;;;6.90;3.90;;;;;;;33.91;23.11;99737.28;5052429;28;20058;-50
2022/05/15 08:26:59;;;;;;;10.00;6.47;;;;;;;33.52;23.63;99734.41;5052228;28;20493;-52
2022/05/15 08:29:24;;;;;;;4.40;3.13;;;;;;;33.54;23.87;99726.59;5051995;28;20044;-50
2022/05/15 08:31:50;;;;;;;3.58;2.20;;;;;;;34.04;23.25;99735.97;5052098;28;20401;-50
2022/05/15 08:34:16;;;;;;;5.05;2.40;;;;;;;33.93;22.73;99737.72;5051947;28;20055;-51
2022/05/15 08:36:44;;;;;;;6.28;2.35;;;;;;;33.85;22.93;99736.75;5051599;28;20119;-52
2022/05/15 08:39:13;;;;;;;5.20;2.72;;;;;;;34.36;22.61;99727.59;5050313;28;20571;-49
2022/05/15 08:41:59;;;;;;;10.65;2.50;;;;;;;33.93;21.71;99738.53;5050433;28;20095;-50
2022/05/15 08:44:32;;;;;;;4.97;2.50;;;;;;;33.56;22.74;99733.31;5044892;28;20111;-49
2022/05/15 08:47:01;;;;;;;4.53;2.20;;;;;;;34.11;22.41;99740.88;5040019;28;20032;-51
2022/05/15 08:49:32;;;;;;;8.98;2.55;;;;;;;33.75;22.03;99726.28;5052448;28;20032;-51
2022/05/15 08:52:28;;;;;;;6.40;2.90;;;;;;;33.92;21.80;99725.09;5051971;28;20053;-52
2022/05/15 08:54:57;;;;;;;9.23;3.08;;;;;;;33.91;22.35;99737.28;5051441;28;20035;-52
2022/05/15 08:57:40;;;;;;;;;;;;;;;33.97;21.71;99736.63;5051597;28;20516;-53
2022/05/15 09:00:11;;;;;;;6.57;3.20;;;;;;;34.40;21.16;99729.25;5050644;28;19905;-49
2022/05/15 09:02:41;;;;;;;7.65;3.05;;;;;;;34.40;21.61;99736.75;5051107;28;20025;-53
2022/05/15 09:05:08;;;;;;;8.38;3.25;;;;;;;33.86;21.88;99735.59;5051287;28;20066;-52
2022/05/15 09:07:49;;;;;;;5.65;3.67;;;;;;;34.92;21.17;99729.03;5051412;28;20033;-53
2022/05/15 09:10:37;;;;;;;7.97;2.40;;;;;;;34.42;20.37;99738.00;5050820;28;20025;-52
2022/05/15 09:13:18;;;;;;;3.17;2.17;;;;;;;32.50;21.68;99724.69;5051544;28;20029;-49
2022/05/15 09:15:58;;;;;;;4.93;2.60;;;;;;;34.04;20.80;99725.75;5051083;28;20028;-49
2022/05/15 09:18:23;;;;;;;;;;;;;;;33.64;21.66;99720.53;5051841;28;20039;-51
2022/05/15 09:20:48;;;;;;;6.15;3.30;;;;;;;34.21;21.31;99719.00;5051442;28;19908;-51
2022/05/15 09:23:35;;;;;;;7.68;2.45;;;;;;;34.49;20.50;99720.75;5050810;28;20033;-47
2022/05/15 09:26:14;;;;;;;7.47;2.30;;;;;;;33.72;20.92;99719.53;5050973;28;20477;-49
2022/05/15 09:28:44;;;;;;;;;;;;;;;33.84;21.09;99716.66;5051527;28;20094;-50
2022/05/15 09:31:22;;;;;;;6.95;2.55;;;;;;;34.26;20.16;99710.44;5050978;28;19935;-53
2022/05/15 09:33:55;;;;;;;4.57;2.60;;;;;;;34.21;20.94;99694.16;5050339;28;20184;-50
2022/05/15 09:36:24;;;;;;;5.47;2.15;;;;;;;34.17;20.59;99707.09;5051176;28;20467;-52
2022/05/15 09:39:08;;;;;;;5.90;2.20;;;;;;;33.95;20.42;99705.03;5050601;28;20033;-50
2022/05/15 09:44:35;;;;;;;8.13;2.85;;;;;;;34.27;20.62;99705.72;5050431;28;20028;-50
2022/05/15 09:47:24;;;;;;;7.55;2.30;;;;;;;35.05;19.91;99697.25;5050513;28;20040;-50
2022/05/15 09:49:50;;;;;;;4.30;2.22;;;;;;;34.91;19.48;99695.06;5050366;28;20059;-49
2022/05/15 09:52:21;;;;;;;10.27;2.45;;;;;;;35.00;19.51;99692.88;5050338;28;20108;-51
2022/05/15 09:54:50;;;;;;;3.92;2.00;;;;;;;35.33;18.69;99690.63;5050285;28;20029;-51
2022/05/15 09:57:22;;;;;;;3.85;2.15;;;;;;;35.16;18.72;99680.84;5050634;28;20029;-50
2022/05/15 09:59:59;;;;;;;5.80;2.55;;;;;;;34.64;19.64;99685.91;5050272;28;20112;-51
2022/05/15 10:02:46;;;;;;;6.97;1.90;;;;;;;34.54;20.09;99680.97;5048629;28;20535;-51
2022/05/15 10:05:15;;;;;;;7.85;2.30;;;;;;;34.25;19.11;99686.78;5029956;28;20033;-50
2022/05/15 10:07:46;;;;;;;7.95;2.13;;;;;;;34.95;18.08;99679.34;5030047;28;20281;-48
2022/05/15 10:10:20;;;;;;;4.25;2.05;;;;;;;35.42;18.02;99683.66;5029576;28;20042;-50
2022/05/15 10:12:51;;;;;;;2.47;1.67;;;;;;;35.16;18.25;99676.13;5030373;28;20397;-51
2022/05/15 10:15:16;;;;;;;4.63;2.22;;;;;;;35.54;18.55;99676.31;5029850;28;20117;-49
2022/05/15 10:17:52;;;;;;;4.38;2.10;;;;;;;35.68;18.42;99684.84;5029817;28;20078;-49
2022/05/15 10:20:22;;;;;;;3.17;1.60;;;;;;;35.35;17.75;99677.22;5029953;28;20046;-51
2022/05/15 10:22:54;;;;;;;4.57;1.90;;;;;;;35.49;17.96;99677.44;5028594;28;20176;-52
2022/05/15 10:25:51;;;;;;;5.15;1.92;;;;;;;35.25;18.01;99673.13;5029954;28;20506;-51
2022/05/15 10:29:02;;;;;;;3.65;2.10;;;;;;;34.98;18.07;99672.28;5029924;28;20370;-51
2022/05/15 10:31:36;;;;;;;3.72;1.95;;;;;;;35.04;17.50;99660.53;5007307;28;20073;-50
2022/05/15 10:34:04;;;;;;;5.28;2.00;;;;;;;35.31;18.30;99659.78;5033489;28;20021;-51
2022/05/15 10:36:29;;;;;;;5.95;1.83;;;;;;;35.35;17.80;99666.16;5049691;28;20052;-50
2022/05/15 10:39:33;;;;;;;2.88;1.88;;;;;;;36.46;16.96;99656.50;5048883;28;20060;-50
2022/05/15 10:42:19;;;;;;;3.95;1.88;;;;;;;36.00;15.99;99652.03;5043486;28;20044;-49
2022/05/15 10:45:06;;;;;;;3.85;1.88;;;;;;;35.85;16.64;99658.56;5049332;28;20082;-50
2022/05/15 10:47:44;;;;;;;3.22;1.88;;;;;;;35.41;16.91;99654.41;5049327;28;20021;-49
2022/05/15 10:50:43;;;;;;;10.87;2.30;;;;;;;36.05;16.78;99656.44;5049553;28;20136;-49
2022/05/15 10:59:45;;;;;;;3.75;1.80;;;;;;;35.47;17.01;99651.31;5049733;28;20032;-51
2022/05/15 11:02:13;;;;;;;3.40;2.05;;;;;;;35.99;16.27;99652.41;5049237;28;20025;-51
2022/05/15 11:05:11;;;;;;;4.40;1.90;;;;;;;34.30;17.19;99641.47;5029642;28;20029;-51
2022/05/15 11:07:41;;;;;;;8.40;1.90;;;;;;;35.69;16.46;99641.38;5029375;28;20029;-50
2022/05/15 11:10:20;;;;;;;4.43;2.00;;;;;;;35.06;17.42;99643.59;5029526;28;20026;-52
2022/05/15 11:12:58;;;;;;;3.92;1.95;;;;;;;35.41;16.78;99648.06;5029398;28;20030;-51
2022/05/15 11:15:39;;;;;;;3.10;1.63;;;;;;;36.32;16.40;99639.72;5029687;28;20053;-49
2022/05/15 11:18:11;;;;;;;5.38;1.98;;;;;;;35.67;15.59;99636.16;5029395;28;20076;-51
2022/05/15 11:20:53;;;;;;;2.22;1.73;;;;;;;35.85;15.74;99633.63;5029076;28;20045;-52
2022/05/15 11:23:44;;;;;;;3.50;1.90;;;;;;;35.49;15.85;99633.19;5032649;28;20424;-51
2022/05/15 11:26:34;;;;;;;4.63;1.77;;;;;;;34.98;16.00;99626.09;5045052;28;20033;-52
2022/05/15 11:29:03;;;;;;;;;;;;;;;35.30;16.44;99628.56;5053585;28;20071;-53
2022/05/15 11:31:34;;;;;;;2.42;1.77;;;;;;;35.42;16.87;99619.25;5052927;28;19923;-52
2022/05/15 11:34:03;;;;;;;3.90;1.90;;;;;;;35.93;15.96;99618.72;5052859;28;20020;-51
2022/05/15 11:36:41;;;;;;;4.35;2.10;;;;;;;35.59;16.08;99615.91;5053672;28;20505;-52
2022/05/15 11:39:13;;;;;;;3.25;1.70;;;;;;;35.73;15.77;99615.31;5053455;28;20158;-51
2022/05/15 11:41:38;;;;;;;4.15;2.00;;;;;;;36.10;15.94;99622.88;5053064;28;20452;-51
2022/05/15 11:44:13;;;;;;;3.45;1.60;;;;;;;36.42;15.25;99614.09;5052997;28;20021;-51
2022/05/15 11:46:47;;;;;;;4.15;2.20;;;;;;;36.63;15.69;99612.69;5051542;28;20031;-50
2022/05/15 11:49:26;;;;;;;3.75;2.67;;;;;;;36.24;15.72;99611.16;5053148;28;20047;-51
2022/05/15 11:52:04;;;;;;;;;;;;;;;36.90;15.66;99607.78;5053417;28;20021;-49
2022/05/15 11:54:36;;;;;;;3.38;1.80;;;;;;;36.76;15.55;99603.72;5052752;28;19939;-52
2022/05/15 11:57:03;;;;;;;3.67;1.60;;;;;;;34.75;16.78;99603.22;5052149;28;20032;-49
2022/05/15 11:59:32;;;;;;;4.82;2.00;;;;;;;34.64;17.38;99603.81;5053103;28;20029;-51
2022/05/15 12:02:02;;;;;;;6.13;2.08;;;;;;;35.65;17.11;99599.78;5051855;28;20041;-51
2022/05/15 12:04:33;;;;;;;4.03;1.88;;;;;;;35.52;17.20;99593.69;5050962;28;20075;-51
2022/05/15 12:06:59;;;;;;;2.50;1.60;;;;;;;36.39;16.98;99592.72;5052959;28;20033;-49